sensor_id;sensor_type;location;lat;lon;timestamp;P1;durP1;ratioP1;P2;durP2;ratioP2
47764;SDS011;33529;49.242;8.670;2023-09-19T00:00:58;3.72;;;1.70;;
47764;SDS011;33529;49.242;8.670;2023-09-19T00:03:24;3.50;;;1.50;;
47764;SDS011;33529;49.242;8.670;2023-09-19T00:05:52;3.85;;;1.83;;
47764;SDS011;33529;49.242;8.670;2023-09-19T00:08:19;2.83;;;1.70;;
47764;SDS011;33529;49.242;8.670;2023-09-19T00:10:50;2.47;;;1.27;;
47764;SDS011;33529;49.242;8.670;2023-09-19T00:13:17;2.95;;;1.35;;
47764;SDS011;33529;49.242;8.670;2023-09-19T00:15:46;3.53;;;1.65;;
47764;SDS011;33529;49.242;8.670;2023-09-19T00:18:18;3.60;;;1.55;;
47764;SDS011;33529;49.242;8.670;2023-09-19T00:20:48;5.50;;;1.80;;
47764;SDS011;33529;49.242;8.670;2023-09-19T00:23:17;3.38;;;1.70;;
47764;SDS011;33529;49.242;8.670;2023-09-19T00:25:46;3.10;;;1.48;;
47764;SDS011;33529;49.242;8.670;2023-09-19T00:28:13;4.97;;;1.63;;
47764;SDS011;33529;49.242;8.670;2023-09-19T00:30:43;3.83;;;1.55;;
47764;SDS011;33529;49.242;8.670;2023-09-19T00:33:10;2.55;;;1.27;;
47764;SDS011;33529;49.242;8.670;2023-09-19T00:35:47;3.13;;;1.60;;
47764;SDS011;33529;49.242;8.670;2023-09-19T00:38:13;3.13;;;1.70;;
47764;SDS011;33529;49.242;8.670;2023-09-19T00:40:46;3.97;;;1.65;;
47764;SDS011;33529;49.242;8.670;2023-09-19T00:43:14;2.60;;;1.35;;
47764;SDS011;33529;49.242;8.670;2023-09-19T00:45:45;2.67;;;1.50;;
47764;SDS011;33529;49.242;8.670;2023-09-19T00:48:18;4.00;;;1.98;;
47764;SDS011;33529;49.242;8.670;2023-09-19T00:50:46;3.22;;;1.60;;
47764;SDS011;33529;49.242;8.670;2023-09-19T00:53:15;4.72;;;1.95;;
47764;SDS011;33529;49.242;8.670;2023-09-19T00:55:46;4.07;;;1.67;;
47764;SDS011;33529;49.242;8.670;2023-09-19T00:58:16;5.07;;;1.80;;
47764;SDS011;33529;49.242;8.670;2023-09-19T01:00:44;2.78;;;1.70;;
47764;SDS011;33529;49.242;8.670;2023-09-19T01:03:12;4.88;;;1.98;;
47764;SDS011;33529;49.242;8.670;2023-09-19T01:05:40;4.25;;;2.00;;
47764;SDS011;33529;49.242;8.670;2023-09-19T01:08:08;3.95;;;1.40;;
47764;SDS011;33529;49.242;8.670;2023-09-19T01:10:38;2.58;;;1.52;;
47764;SDS011;33529;49.242;8.670;2023-09-19T01:28:20;2.92;;;1.50;;
47764;SDS011;33529;49.242;8.670;2023-09-19T01:31:03;3.17;;;1.50;;
47764;SDS011;33529;49.242;8.670;2023-09-19T01:36:23;3.30;;;1.70;;
47764;SDS011;33529;49.242;8.670;2023-09-19T01:38:51;5.82;;;1.58;;
47764;SDS011;33529;49.242;8.670;2023-09-19T01:41:21;3.25;;;1.70;;
47764;SDS011;33529;49.242;8.670;2023-09-19T01:43:54;3.38;;;1.65;;
47764;SDS011;33529;49.242;8.670;2023-09-19T01:46:21;4.15;;;1.65;;
47764;SDS011;33529;49.242;8.670;2023-09-19T01:49:00;5.68;;;1.80;;
47764;SDS011;33529;49.242;8.670;2023-09-19T01:51:53;3.50;;;1.90;;
47764;SDS011;33529;49.242;8.670;2023-09-19T01:54:31;3.28;;;1.48;;
47764;SDS011;33529;49.242;8.670;2023-09-19T01:57:26;2.88;;;1.60;;
47764;SDS011;33529;49.242;8.670;2023-09-19T02:00:01;4.38;;;2.03;;
47764;SDS011;33529;49.242;8.670;2023-09-19T02:02:39;4.13;;;1.70;;
47764;SDS011;33529;49.242;8.670;2023-09-19T02:05:11;4.60;;;1.58;;
47764;SDS011;33529;49.242;8.670;2023-09-19T02:07:38;5.05;;;1.80;;
47764;SDS011;33529;49.242;8.670;2023-09-19T02:10:06;3.10;;;1.50;;
47764;SDS011;33529;49.242;8.670;2023-09-19T02:12:36;3.15;;;1.48;;
47764;SDS011;33529;49.242;8.670;2023-09-19T02:15:04;5.57;;;1.73;;
47764;SDS011;33529;49.242;8.670;2023-09-19T02:17:33;1.75;;;1.00;;
47764;SDS011;33529;49.242;8.670;2023-09-19T02:20:01;2.78;;;1.23;;
47764;SDS011;33529;49.242;8.670;2023-09-19T02:22:30;3.10;;;1.30;;
47764;SDS011;33529;49.242;8.670;2023-09-19T02:24:57;4.45;;;1.58;;
47764;SDS011;33529;49.242;8.670;2023-09-19T02:27:27;2.10;;;1.27;;
47764;SDS011;33529;49.242;8.670;2023-09-19T02:29:53;3.83;;;1.55;;
47764;SDS011;33529;49.242;8.670;2023-09-19T02:32:20;3.72;;;1.63;;
47764;SDS011;33529;49.242;8.670;2023-09-19T02:34:47;2.63;;;1.40;;
47764;SDS011;33529;49.242;8.670;2023-09-19T02:37:15;3.33;;;1.30;;
47764;SDS011;33529;49.242;8.670;2023-09-19T02:39:43;3.92;;;1.70;;
47764;SDS011;33529;49.242;8.670;2023-09-19T02:42:11;4.13;;;1.42;;
47764;SDS011;33529;49.242;8.670;2023-09-19T02:44:37;3.03;;;1.70;;
47764;SDS011;33529;49.242;8.670;2023-09-19T02:47:04;2.97;;;1.70;;
47764;SDS011;33529;49.242;8.670;2023-09-19T02:49:31;5.78;;;1.60;;
47764;SDS011;33529;49.242;8.670;2023-09-19T02:51:59;2.65;;;1.25;;
47764;SDS011;33529;49.242;8.670;2023-09-19T02:54:25;4.20;;;1.70;;
47764;SDS011;33529;49.242;8.670;2023-09-19T02:56:53;4.22;;;1.70;;
47764;SDS011;33529;49.242;8.670;2023-09-19T02:59:20;3.38;;;1.80;;
47764;SDS011;33529;49.242;8.670;2023-09-19T03:01:47;2.97;;;1.55;;
47764;SDS011;33529;49.242;8.670;2023-09-19T03:04:14;3.10;;;1.60;;
47764;SDS011;33529;49.242;8.670;2023-09-19T03:06:47;2.90;;;1.63;;
47764;SDS011;33529;49.242;8.670;2023-09-19T03:09:15;3.40;;;1.80;;
47764;SDS011;33529;49.242;8.670;2023-09-19T03:11:42;3.97;;;1.77;;
47764;SDS011;33529;49.242;8.670;2023-09-19T03:14:10;7.15;;;1.77;;
47764;SDS011;33529;49.242;8.670;2023-09-19T03:16:38;4.35;;;1.58;;
47764;SDS011;33529;49.242;8.670;2023-09-19T03:19:06;6.50;;;1.52;;
47764;SDS011;33529;49.242;8.670;2023-09-19T03:21:33;3.08;;;1.50;;
47764;SDS011;33529;49.242;8.670;2023-09-19T03:24:01;4.68;;;2.05;;
47764;SDS011;33529;49.242;8.670;2023-09-19T03:26:28;5.88;;;1.80;;
47764;SDS011;33529;49.242;8.670;2023-09-19T03:28:56;3.00;;;1.67;;
47764;SDS011;33529;49.242;8.670;2023-09-19T03:31:24;3.58;;;1.58;;
47764;SDS011;33529;49.242;8.670;2023-09-19T03:33:51;4.72;;;1.50;;
47764;SDS011;33529;49.242;8.670;2023-09-19T03:36:18;4.32;;;2.08;;
47764;SDS011;33529;49.242;8.670;2023-09-19T03:38:45;3.17;;;1.70;;
47764;SDS011;33529;49.242;8.670;2023-09-19T03:41:12;3.38;;;2.00;;
47764;SDS011;33529;49.242;8.670;2023-09-19T03:43:41;3.47;;;2.05;;
47764;SDS011;33529;49.242;8.670;2023-09-19T03:46:08;5.85;;;2.17;;
47764;SDS011;33529;49.242;8.670;2023-09-19T03:48:37;4.22;;;1.92;;
47764;SDS011;33529;49.242;8.670;2023-09-19T03:51:04;3.53;;;2.30;;
47764;SDS011;33529;49.242;8.670;2023-09-19T03:53:32;4.65;;;1.95;;
47764;SDS011;33529;49.242;8.670;2023-09-19T03:55:59;2.90;;;1.83;;
47764;SDS011;33529;49.242;8.670;2023-09-19T03:58:27;3.90;;;1.58;;
47764;SDS011;33529;49.242;8.670;2023-09-19T04:00:55;3.97;;;2.00;;
47764;SDS011;33529;49.242;8.670;2023-09-19T04:03:22;5.50;;;2.10;;
47764;SDS011;33529;49.242;8.670;2023-09-19T04:05:50;3.45;;;1.80;;
47764;SDS011;33529;49.242;8.670;2023-09-19T04:08:17;3.40;;;2.08;;
47764;SDS011;33529;49.242;8.670;2023-09-19T04:10:44;4.20;;;1.75;;
47764;SDS011;33529;49.242;8.670;2023-09-19T04:13:12;3.88;;;1.83;;
47764;SDS011;33529;49.242;8.670;2023-09-19T04:15:39;3.53;;;1.73;;
47764;SDS011;33529;49.242;8.670;2023-09-19T04:18:07;6.05;;;1.95;;
47764;SDS011;33529;49.242;8.670;2023-09-19T04:20:34;5.03;;;1.95;;
47764;SDS011;33529;49.242;8.670;2023-09-19T04:23:01;2.90;;;1.63;;
47764;SDS011;33529;49.242;8.670;2023-09-19T04:25:28;5.32;;;1.85;;
47764;SDS011;33529;49.242;8.670;2023-09-19T04:27:55;3.53;;;1.88;;
47764;SDS011;33529;49.242;8.670;2023-09-19T04:30:22;4.97;;;2.05;;
47764;SDS011;33529;49.242;8.670;2023-09-19T04:32:49;5.35;;;2.20;;
47764;SDS011;33529;49.242;8.670;2023-09-19T04:35:17;4.97;;;2.00;;
47764;SDS011;33529;49.242;8.670;2023-09-19T04:37:44;3.95;;;1.77;;
47764;SDS011;33529;49.242;8.670;2023-09-19T04:40:11;4.78;;;2.00;;
47764;SDS011;33529;49.242;8.670;2023-09-19T04:42:39;3.78;;;2.15;;
47764;SDS011;33529;49.242;8.670;2023-09-19T04:45:07;6.05;;;2.00;;
47764;SDS011;33529;49.242;8.670;2023-09-19T04:47:36;4.55;;;2.33;;
47764;SDS011;33529;49.242;8.670;2023-09-19T04:50:09;3.20;;;2.33;;
47764;SDS011;33529;49.242;8.670;2023-09-19T04:52:40;4.30;;;2.20;;
47764;SDS011;33529;49.242;8.670;2023-09-19T04:55:12;5.97;;;2.28;;
47764;SDS011;33529;49.242;8.670;2023-09-19T04:57:43;3.95;;;2.08;;
47764;SDS011;33529;49.242;8.670;2023-09-19T05:00:12;3.42;;;2.10;;
47764;SDS011;33529;49.242;8.670;2023-09-19T05:02:41;3.75;;;1.98;;
47764;SDS011;33529;49.242;8.670;2023-09-19T05:05:09;5.30;;;2.30;;
47764;SDS011;33529;49.242;8.670;2023-09-19T05:07:40;6.50;;;2.60;;
47764;SDS011;33529;49.242;8.670;2023-09-19T05:10:08;7.07;;;2.67;;
47764;SDS011;33529;49.242;8.670;2023-09-19T05:12:36;4.28;;;2.40;;
47764;SDS011;33529;49.242;8.670;2023-09-19T05:15:04;5.53;;;2.55;;
47764;SDS011;33529;49.242;8.670;2023-09-19T05:17:33;5.32;;;2.90;;
47764;SDS011;33529;49.242;8.670;2023-09-19T05:20:01;5.15;;;2.28;;
47764;SDS011;33529;49.242;8.670;2023-09-19T05:25:29;3.97;;;2.92;;
47764;SDS011;33529;49.242;8.670;2023-09-19T05:28:00;5.55;;;2.88;;
47764;SDS011;33529;49.242;8.670;2023-09-19T05:30:30;5.45;;;2.88;;
47764;SDS011;33529;49.242;8.670;2023-09-19T05:32:58;3.85;;;2.70;;
47764;SDS011;33529;49.242;8.670;2023-09-19T05:35:25;4.50;;;2.65;;
47764;SDS011;33529;49.242;8.670;2023-09-19T05:37:53;4.25;;;2.60;;
47764;SDS011;33529;49.242;8.670;2023-09-19T05:42:51;6.00;;;2.80;;
47764;SDS011;33529;49.242;8.670;2023-09-19T05:45:18;5.60;;;2.63;;
47764;SDS011;33529;49.242;8.670;2023-09-19T05:47:49;7.85;;;4.13;;
47764;SDS011;33529;49.242;8.670;2023-09-19T05:50:19;6.03;;;3.75;;
47764;SDS011;33529;49.242;8.670;2023-09-19T05:52:52;5.10;;;3.40;;
47764;SDS011;33529;49.242;8.670;2023-09-19T05:55:20;5.30;;;3.22;;
47764;SDS011;33529;49.242;8.670;2023-09-19T05:57:50;3.88;;;2.70;;
47764;SDS011;33529;49.242;8.670;2023-09-19T06:00:20;4.60;;;3.20;;
47764;SDS011;33529;49.242;8.670;2023-09-19T06:02:53;5.45;;;2.88;;
47764;SDS011;33529;49.242;8.670;2023-09-19T06:05:21;6.13;;;2.80;;
47764;SDS011;33529;49.242;8.670;2023-09-19T06:07:49;4.82;;;2.47;;
47764;SDS011;33529;49.242;8.670;2023-09-19T06:10:17;5.57;;;2.63;;
47764;SDS011;33529;49.242;8.670;2023-09-19T06:12:44;4.55;;;2.65;;
47764;SDS011;33529;49.242;8.670;2023-09-19T06:15:12;5.07;;;2.90;;
47764;SDS011;33529;49.242;8.670;2023-09-19T06:17:48;11.63;;;3.00;;
47764;SDS011;33529;49.242;8.670;2023-09-19T06:20:17;3.75;;;2.15;;
47764;SDS011;33529;49.242;8.670;2023-09-19T06:22:46;4.90;;;2.35;;
47764;SDS011;33529;49.242;8.670;2023-09-19T06:25:14;7.07;;;2.55;;
47764;SDS011;33529;49.242;8.670;2023-09-19T06:27:49;4.78;;;2.70;;
47764;SDS011;33529;49.242;8.670;2023-09-19T06:32:56;6.30;;;2.97;;
47764;SDS011;33529;49.242;8.670;2023-09-19T06:35:24;6.47;;;2.53;;
47764;SDS011;33529;49.242;8.670;2023-09-19T06:37:52;6.53;;;3.03;;
47764;SDS011;33529;49.242;8.670;2023-09-19T06:40:21;5.97;;;2.78;;
47764;SDS011;33529;49.242;8.670;2023-09-19T06:42:50;4.45;;;3.45;;
47764;SDS011;33529;49.242;8.670;2023-09-19T06:45:17;10.77;;;5.38;;
47764;SDS011;33529;49.242;8.670;2023-09-19T06:47:45;9.80;;;4.15;;
47764;SDS011;33529;49.242;8.670;2023-09-19T06:50:19;4.45;;;3.35;;
47764;SDS011;33529;49.242;8.670;2023-09-19T06:52:49;6.97;;;4.78;;
47764;SDS011;33529;49.242;8.670;2023-09-19T06:55:18;6.68;;;4.28;;
47764;SDS011;33529;49.242;8.670;2023-09-19T06:57:46;6.38;;;3.95;;
47764;SDS011;33529;49.242;8.670;2023-09-19T07:00:14;9.98;;;6.75;;
47764;SDS011;33529;49.242;8.670;2023-09-19T07:02:42;7.25;;;4.82;;
47764;SDS011;33529;49.242;8.670;2023-09-19T07:05:09;6.43;;;4.28;;
47764;SDS011;33529;49.242;8.670;2023-09-19T07:07:36;7.43;;;3.50;;
47764;SDS011;33529;49.242;8.670;2023-09-19T07:10:03;5.82;;;3.95;;
47764;SDS011;33529;49.242;8.670;2023-09-19T07:12:37;5.93;;;3.60;;
47764;SDS011;33529;49.242;8.670;2023-09-19T07:15:04;5.55;;;3.03;;
47764;SDS011;33529;49.242;8.670;2023-09-19T07:17:32;9.48;;;6.18;;
47764;SDS011;33529;49.242;8.670;2023-09-19T07:19:59;6.90;;;2.72;;
47764;SDS011;33529;49.242;8.670;2023-09-19T07:22:26;4.95;;;3.08;;
47764;SDS011;33529;49.242;8.670;2023-09-19T07:24:53;5.50;;;2.40;;
47764;SDS011;33529;49.242;8.670;2023-09-19T07:27:21;6.30;;;2.80;;
47764;SDS011;33529;49.242;8.670;2023-09-19T07:29:48;4.00;;;1.83;;
47764;SDS011;33529;49.242;8.670;2023-09-19T07:32:18;4.55;;;2.35;;
47764;SDS011;33529;49.242;8.670;2023-09-19T07:34:46;5.18;;;2.40;;
47764;SDS011;33529;49.242;8.670;2023-09-19T07:37:13;4.38;;;2.42;;
47764;SDS011;33529;49.242;8.670;2023-09-19T07:39:42;4.35;;;2.35;;
47764;SDS011;33529;49.242;8.670;2023-09-19T07:42:11;4.90;;;2.53;;
47764;SDS011;33529;49.242;8.670;2023-09-19T07:44:44;7.65;;;2.40;;
47764;SDS011;33529;49.242;8.670;2023-09-19T07:47:16;4.68;;;2.42;;
47764;SDS011;33529;49.242;8.670;2023-09-19T07:49:45;5.80;;;2.50;;
47764;SDS011;33529;49.242;8.670;2023-09-19T07:52:14;4.83;;;2.33;;
47764;SDS011;33529;49.242;8.670;2023-09-19T07:54:42;6.43;;;2.55;;
47764;SDS011;33529;49.242;8.670;2023-09-19T07:57:10;5.35;;;2.30;;
47764;SDS011;33529;49.242;8.670;2023-09-19T07:59:37;4.63;;;2.08;;
47764;SDS011;33529;49.242;8.670;2023-09-19T08:02:05;2.70;;;1.67;;
47764;SDS011;33529;49.242;8.670;2023-09-19T08:04:35;4.30;;;1.77;;
47764;SDS011;33529;49.242;8.670;2023-09-19T08:07:02;4.60;;;1.70;;
47764;SDS011;33529;49.242;8.670;2023-09-19T08:09:31;3.08;;;1.63;;
47764;SDS011;33529;49.242;8.670;2023-09-19T08:12:00;3.15;;;1.45;;
47764;SDS011;33529;49.242;8.670;2023-09-19T08:14:31;4.78;;;1.92;;
47764;SDS011;33529;49.242;8.670;2023-09-19T08:16:58;5.72;;;1.90;;
47764;SDS011;33529;49.242;8.670;2023-09-19T08:19:27;5.65;;;1.92;;
47764;SDS011;33529;49.242;8.670;2023-09-19T08:21:58;4.78;;;2.00;;
47764;SDS011;33529;49.242;8.670;2023-09-19T08:24:25;2.90;;;1.40;;
47764;SDS011;33529;49.242;8.670;2023-09-19T08:26:56;4.70;;;2.10;;
47764;SDS011;33529;49.242;8.670;2023-09-19T08:29:23;5.80;;;2.05;;
47764;SDS011;33529;49.242;8.670;2023-09-19T08:31:54;6.63;;;3.00;;
47764;SDS011;33529;49.242;8.670;2023-09-19T08:34:24;3.67;;;2.00;;
47764;SDS011;33529;49.242;8.670;2023-09-19T08:36:52;3.85;;;2.00;;
47764;SDS011;33529;49.242;8.670;2023-09-19T08:39:23;4.90;;;2.00;;
47764;SDS011;33529;49.242;8.670;2023-09-19T08:41:56;6.90;;;2.05;;
47764;SDS011;33529;49.242;8.670;2023-09-19T08:44:27;5.35;;;2.33;;
47764;SDS011;33529;49.242;8.670;2023-09-19T08:47:02;4.43;;;1.70;;
47764;SDS011;33529;49.242;8.670;2023-09-19T08:49:45;5.25;;;2.33;;
47764;SDS011;33529;49.242;8.670;2023-09-19T08:52:25;4.57;;;1.90;;
47764;SDS011;33529;49.242;8.670;2023-09-19T08:54:59;4.30;;;2.20;;
47764;SDS011;33529;49.242;8.670;2023-09-19T08:57:33;6.75;;;1.90;;
47764;SDS011;33529;49.242;8.670;2023-09-19T09:00:03;5.53;;;1.80;;
47764;SDS011;33529;49.242;8.670;2023-09-19T09:02:38;3.90;;;2.08;;
47764;SDS011;33529;49.242;8.670;2023-09-19T09:05:10;4.93;;;1.77;;
47764;SDS011;33529;49.242;8.670;2023-09-19T09:07:39;6.60;;;2.08;;
47764;SDS011;33529;49.242;8.670;2023-09-19T09:10:07;5.07;;;1.90;;
47764;SDS011;33529;49.242;8.670;2023-09-19T09:12:36;5.13;;;2.00;;
47764;SDS011;33529;49.242;8.670;2023-09-19T09:15:06;4.65;;;2.10;;
47764;SDS011;33529;49.242;8.670;2023-09-19T09:17:34;6.80;;;2.08;;
47764;SDS011;33529;49.242;8.670;2023-09-19T09:20:02;3.92;;;1.73;;
47764;SDS011;33529;49.242;8.670;2023-09-19T09:22:31;4.20;;;1.80;;
47764;SDS011;33529;49.242;8.670;2023-09-19T09:24:59;4.55;;;2.10;;
47764;SDS011;33529;49.242;8.670;2023-09-19T09:27:30;6.95;;;2.33;;
47764;SDS011;33529;49.242;8.670;2023-09-19T09:30:00;6.15;;;2.63;;
47764;SDS011;33529;49.242;8.670;2023-09-19T09:32:28;5.63;;;2.40;;
47764;SDS011;33529;49.242;8.670;2023-09-19T09:35:00;3.70;;;1.83;;
47764;SDS011;33529;49.242;8.670;2023-09-19T09:37:28;5.63;;;2.65;;
47764;SDS011;33529;49.242;8.670;2023-09-19T09:40:01;9.10;;;4.15;;
47764;SDS011;33529;49.242;8.670;2023-09-19T09:42:46;5.60;;;3.30;;
47764;SDS011;33529;49.242;8.670;2023-09-19T09:45:22;5.07;;;2.28;;
47764;SDS011;33529;49.242;8.670;2023-09-19T09:48:00;4.60;;;2.35;;
47764;SDS011;33529;49.242;8.670;2023-09-19T09:50:31;3.70;;;2.38;;
47764;SDS011;33529;49.242;8.670;2023-09-19T09:53:19;4.32;;;2.35;;
47764;SDS011;33529;49.242;8.670;2023-09-19T09:55:59;3.80;;;2.00;;
47764;SDS011;33529;49.242;8.670;2023-09-19T09:58:49;6.38;;;2.03;;
47764;SDS011;33529;49.242;8.670;2023-09-19T10:01:21;5.93;;;2.63;;
47764;SDS011;33529;49.242;8.670;2023-09-19T10:03:59;4.97;;;2.47;;
47764;SDS011;33529;49.242;8.670;2023-09-19T10:06:39;4.55;;;2.40;;
47764;SDS011;33529;49.242;8.670;2023-09-19T10:09:17;4.32;;;2.20;;
47764;SDS011;33529;49.242;8.670;2023-09-19T10:11:47;6.30;;;2.35;;
47764;SDS011;33529;49.242;8.670;2023-09-19T10:14:24;5.80;;;2.58;;
47764;SDS011;33529;49.242;8.670;2023-09-19T10:16:59;5.10;;;2.20;;
47764;SDS011;33529;49.242;8.670;2023-09-19T10:19:33;5.25;;;1.58;;
47764;SDS011;33529;49.242;8.670;2023-09-19T10:22:10;4.70;;;1.90;;
47764;SDS011;33529;49.242;8.670;2023-09-19T10:24:41;4.47;;;1.63;;
47764;SDS011;33529;49.242;8.670;2023-09-19T10:27:27;3.83;;;1.55;;
47764;SDS011;33529;49.242;8.670;2023-09-19T10:30:03;3.45;;;1.52;;
47764;SDS011;33529;49.242;8.670;2023-09-19T10:32:34;3.20;;;1.50;;
47764;SDS011;33529;49.242;8.670;2023-09-19T10:35:03;5.55;;;1.90;;
47764;SDS011;33529;49.242;8.670;2023-09-19T10:37:33;4.30;;;1.80;;
47764;SDS011;33529;49.242;8.670;2023-09-19T10:40:05;4.15;;;1.70;;
47764;SDS011;33529;49.242;8.670;2023-09-19T10:42:35;5.05;;;1.50;;
47764;SDS011;33529;49.242;8.670;2023-09-19T10:45:06;3.47;;;1.55;;
47764;SDS011;33529;49.242;8.670;2023-09-19T10:47:39;3.72;;;1.73;;
47764;SDS011;33529;49.242;8.670;2023-09-19T10:50:06;3.90;;;1.60;;
47764;SDS011;33529;49.242;8.670;2023-09-19T10:52:37;4.72;;;1.60;;
47764;SDS011;33529;49.242;8.670;2023-09-19T10:55:08;4.35;;;1.30;;
47764;SDS011;33529;49.242;8.670;2023-09-19T10:57:44;4.75;;;1.60;;
47764;SDS011;33529;49.242;8.670;2023-09-19T11:00:13;3.20;;;1.67;;
47764;SDS011;33529;49.242;8.670;2023-09-19T11:05:35;3.58;;;1.42;;
47764;SDS011;33529;49.242;8.670;2023-09-19T11:08:07;5.75;;;1.73;;
47764;SDS011;33529;49.242;8.670;2023-09-19T11:10:47;4.38;;;1.52;;
47764;SDS011;33529;49.242;8.670;2023-09-19T11:13:24;3.95;;;1.58;;
47764;SDS011;33529;49.242;8.670;2023-09-19T11:26:43;3.33;;;1.10;;
47764;SDS011;33529;49.242;8.670;2023-09-19T11:29:27;4.22;;;1.33;;
47764;SDS011;33529;49.242;8.670;2023-09-19T11:39:38;4.93;;;1.70;;
47764;SDS011;33529;49.242;8.670;2023-09-19T11:48:24;5.65;;;1.30;;
47764;SDS011;33529;49.242;8.670;2023-09-19T11:50:53;2.85;;;1.15;;
47764;SDS011;33529;49.242;8.670;2023-09-19T11:53:21;5.78;;;1.70;;
47764;SDS011;33529;49.242;8.670;2023-09-19T11:55:48;5.25;;;1.63;;
47764;SDS011;33529;49.242;8.670;2023-09-19T11:58:17;4.78;;;1.88;;
47764;SDS011;33529;49.242;8.670;2023-09-19T12:00:46;4.47;;;1.75;;
47764;SDS011;33529;49.242;8.670;2023-09-19T12:03:23;5.45;;;1.30;;
47764;SDS011;33529;49.242;8.670;2023-09-19T12:05:57;4.88;;;1.70;;
47764;SDS011;33529;49.242;8.670;2023-09-19T12:08:25;3.67;;;1.42;;
47764;SDS011;33529;49.242;8.670;2023-09-19T12:10:53;6.47;;;1.52;;
47764;SDS011;33529;49.242;8.670;2023-09-19T12:13:21;3.40;;;1.30;;
47764;SDS011;33529;49.242;8.670;2023-09-19T12:15:48;4.43;;;1.60;;
47764;SDS011;33529;49.242;8.670;2023-09-19T12:20:55;3.42;;;1.50;;
47764;SDS011;33529;49.242;8.670;2023-09-19T12:23:24;3.08;;;1.33;;
47764;SDS011;33529;49.242;8.670;2023-09-19T12:25:52;4.38;;;1.40;;
47764;SDS011;33529;49.242;8.670;2023-09-19T12:28:25;3.55;;;1.52;;
47764;SDS011;33529;49.242;8.670;2023-09-19T12:30:53;3.22;;;1.60;;
47764;SDS011;33529;49.242;8.670;2023-09-19T12:33:24;2.63;;;1.40;;
47764;SDS011;33529;49.242;8.670;2023-09-19T12:35:54;2.92;;;1.35;;
47764;SDS011;33529;49.242;8.670;2023-09-19T12:38:27;3.42;;;1.17;;
47764;SDS011;33529;49.242;8.670;2023-09-19T12:40:55;3.97;;;1.27;;
47764;SDS011;33529;49.242;8.670;2023-09-19T12:43:25;5.43;;;1.43;;
47764;SDS011;33529;49.242;8.670;2023-09-19T12:45:53;4.63;;;1.50;;
47764;SDS011;33529;49.242;8.670;2023-09-19T12:48:23;3.85;;;1.25;;
47764;SDS011;33529;49.242;8.670;2023-09-19T12:51:08;3.03;;;1.38;;
47764;SDS011;33529;49.242;8.670;2023-09-19T12:56:15;4.15;;;1.40;;
47764;SDS011;33529;49.242;8.670;2023-09-19T12:58:55;3.50;;;1.52;;
47764;SDS011;33529;49.242;8.670;2023-09-19T13:01:27;3.42;;;1.60;;
47764;SDS011;33529;49.242;8.670;2023-09-19T13:06:55;3.45;;;1.30;;
47764;SDS011;33529;49.242;8.670;2023-09-19T13:09:27;3.50;;;1.35;;
47764;SDS011;33529;49.242;8.670;2023-09-19T13:12:01;3.47;;;1.40;;
47764;SDS011;33529;49.242;8.670;2023-09-19T13:14:32;2.30;;;1.20;;
47764;SDS011;33529;49.242;8.670;2023-09-19T13:17:07;3.03;;;1.30;;
47764;SDS011;33529;49.242;8.670;2023-09-19T13:19:44;6.97;;;1.58;;
47764;SDS011;33529;49.242;8.670;2023-09-19T13:25:20;2.28;;;0.93;;
47764;SDS011;33529;49.242;8.670;2023-09-19T13:27:49;2.80;;;1.08;;
47764;SDS011;33529;49.242;8.670;2023-09-19T13:30:28;3.33;;;1.20;;
47764;SDS011;33529;49.242;8.670;2023-09-19T13:33:05;3.85;;;1.40;;
47764;SDS011;33529;49.242;8.670;2023-09-19T13:35:37;2.15;;;1.05;;
47764;SDS011;33529;49.242;8.670;2023-09-19T13:38:07;2.92;;;1.73;;
47764;SDS011;33529;49.242;8.670;2023-09-19T13:40:38;3.35;;;1.15;;
47764;SDS011;33529;49.242;8.670;2023-09-19T13:43:08;2.08;;;1.10;;
47764;SDS011;33529;49.242;8.670;2023-09-19T13:45:34;3.33;;;1.20;;
47764;SDS011;33529;49.242;8.670;2023-09-19T13:48:02;2.47;;;1.13;;
47764;SDS011;33529;49.242;8.670;2023-09-19T13:50:30;2.67;;;1.20;;
47764;SDS011;33529;49.242;8.670;2023-09-19T13:52:57;3.42;;;1.20;;
47764;SDS011;33529;49.242;8.670;2023-09-19T13:55:26;3.38;;;1.17;;
47764;SDS011;33529;49.242;8.670;2023-09-19T13:57:53;2.40;;;1.13;;
47764;SDS011;33529;49.242;8.670;2023-09-19T14:00:22;3.92;;;1.35;;
47764;SDS011;33529;49.242;8.670;2023-09-19T14:02:49;2.83;;;1.30;;
47764;SDS011;33529;49.242;8.670;2023-09-19T14:05:18;2.40;;;1.00;;
47764;SDS011;33529;49.242;8.670;2023-09-19T14:07:45;2.85;;;1.15;;
47764;SDS011;33529;49.242;8.670;2023-09-19T14:10:13;3.58;;;1.10;;
47764;SDS011;33529;49.242;8.670;2023-09-19T14:12:40;3.17;;;1.20;;
47764;SDS011;33529;49.242;8.670;2023-09-19T14:15:07;2.97;;;1.20;;
47764;SDS011;33529;49.242;8.670;2023-09-19T14:17:35;4.00;;;1.50;;
47764;SDS011;33529;49.242;8.670;2023-09-19T14:20:02;3.35;;;1.27;;
47764;SDS011;33529;49.242;8.670;2023-09-19T14:22:31;3.60;;;1.20;;
47764;SDS011;33529;49.242;8.670;2023-09-19T14:24:57;3.03;;;1.08;;
47764;SDS011;33529;49.242;8.670;2023-09-19T14:27:26;2.65;;;1.02;;
47764;SDS011;33529;49.242;8.670;2023-09-19T14:29:52;5.82;;;1.20;;
47764;SDS011;33529;49.242;8.670;2023-09-19T14:32:19;2.95;;;1.13;;
47764;SDS011;33529;49.242;8.670;2023-09-19T14:34:46;2.58;;;1.02;;
47764;SDS011;33529;49.242;8.670;2023-09-19T14:37:13;2.72;;;1.38;;
47764;SDS011;33529;49.242;8.670;2023-09-19T14:39:40;3.70;;;1.00;;
47764;SDS011;33529;49.242;8.670;2023-09-19T14:42:11;3.42;;;1.42;;
47764;SDS011;33529;49.242;8.670;2023-09-19T14:44:39;2.70;;;1.10;;
47764;SDS011;33529;49.242;8.670;2023-09-19T14:47:05;2.00;;;0.82;;
47764;SDS011;33529;49.242;8.670;2023-09-19T14:49:33;2.42;;;1.08;;
47764;SDS011;33529;49.242;8.670;2023-09-19T14:52:01;3.00;;;1.08;;
47764;SDS011;33529;49.242;8.670;2023-09-19T14:54:30;2.47;;;1.10;;
47764;SDS011;33529;49.242;8.670;2023-09-19T14:56:57;2.85;;;1.17;;
47764;SDS011;33529;49.242;8.670;2023-09-19T14:59:30;2.70;;;0.90;;
47764;SDS011;33529;49.242;8.670;2023-09-19T15:01:58;2.67;;;1.25;;
47764;SDS011;33529;49.242;8.670;2023-09-19T15:04:26;3.58;;;1.25;;
47764;SDS011;33529;49.242;8.670;2023-09-19T15:06:54;3.38;;;0.95;;
47764;SDS011;33529;49.242;8.670;2023-09-19T15:09:22;2.08;;;1.10;;
47764;SDS011;33529;49.242;8.670;2023-09-19T15:11:52;3.05;;;0.90;;
47764;SDS011;33529;49.242;8.670;2023-09-19T15:14:20;3.95;;;1.25;;
47764;SDS011;33529;49.242;8.670;2023-09-19T15:16:48;2.20;;;0.93;;
47764;SDS011;33529;49.242;8.670;2023-09-19T15:19:15;2.92;;;1.08;;
47764;SDS011;33529;49.242;8.670;2023-09-19T15:21:43;2.97;;;1.00;;
47764;SDS011;33529;49.242;8.670;2023-09-19T15:24:12;3.78;;;1.15;;
47764;SDS011;33529;49.242;8.670;2023-09-19T15:26:38;2.22;;;0.80;;
47764;SDS011;33529;49.242;8.670;2023-09-19T15:29:06;2.55;;;0.90;;
47764;SDS011;33529;49.242;8.670;2023-09-19T15:31:33;3.22;;;0.98;;
47764;SDS011;33529;49.242;8.670;2023-09-19T15:34:03;2.75;;;1.15;;
47764;SDS011;33529;49.242;8.670;2023-09-19T15:36:31;2.97;;;1.10;;
47764;SDS011;33529;49.242;8.670;2023-09-19T15:39:01;3.88;;;1.13;;
47764;SDS011;33529;49.242;8.670;2023-09-19T15:41:38;3.67;;;1.17;;
47764;SDS011;33529;49.242;8.670;2023-09-19T15:44:11;2.35;;;0.95;;
47764;SDS011;33529;49.242;8.670;2023-09-19T15:46:40;2.90;;;1.05;;
47764;SDS011;33529;49.242;8.670;2023-09-19T15:49:08;5.55;;;1.48;;
47764;SDS011;33529;49.242;8.670;2023-09-19T15:51:35;1.48;;;0.80;;
47764;SDS011;33529;49.242;8.670;2023-09-19T15:54:12;2.17;;;1.00;;
47764;SDS011;33529;49.242;8.670;2023-09-19T15:56:43;4.32;;;1.42;;
47764;SDS011;33529;49.242;8.670;2023-09-19T15:59:11;3.35;;;1.15;;
47764;SDS011;33529;49.242;8.670;2023-09-19T16:01:39;2.45;;;1.10;;
47764;SDS011;33529;49.242;8.670;2023-09-19T16:04:08;2.17;;;1.10;;
47764;SDS011;33529;49.242;8.670;2023-09-19T16:06:36;3.35;;;1.15;;
47764;SDS011;33529;49.242;8.670;2023-09-19T16:09:04;2.08;;;0.93;;